• Join FlightAware (Why Join?)
  • Login
  • US Flag GB Flag 
18:03 EST


 

Airport Tracker/Info


-or-


 

Live Flight TrackerFlight Track Log ✈ CTL22 ✈ 15-Apr-2013 ✈ KBKL - KGRR

Flight Track Log - Related Links

Times and Time Zones

All times are in EDT time to prevent confusion due to time zone crossing. See the CTL22 flight status page for this flight to view local times or setup timezone preferences in your user account.

Time Position Orientation Groundspeed Altitude Reporting Facility
EDT Latitude Longitude Course Direction KTS MPH feet Rate Location/Type
22:03 42.3942 -83.8369 297° West 160 184 6,100  Level FAA TRACON SMA TRACON (SMA)
22:03 42.3997 -83.8539 294° West 159 183 6,100  Level FAA TRACON SMA TRACON (SMA)
22:03 42.4033 -83.8756 283° West 155 178 6,100  Level FAA TRACON SMA TRACON (SMA)
22:04 42.4094 -83.8922 296° West 169 194 6,100  Level FAA TRACON SMA TRACON (SMA)
22:04 42.4156 -83.9081 298° West 162 186 6,100  Level FAA TRACON SMA TRACON (SMA)
22:04 42.4189 -83.9253 285° West 155 178 6,100  Level FAA TRACON SMA TRACON (SMA)
22:05 42.4247 -83.9467 290° West 156 180 6,100  Level FAA TRACON SMA TRACON (SMA)
22:05 42.4375 -83.9794 298° West 162 186 6,100  Level FAA TRACON SMA TRACON (SMA)
22:06 42.4436 -84.0006 291° West 159 183 6,100  Level FAA TRACON SMA TRACON (SMA)
22:06 42.4486 -84.0178 291° West 158 182 6,100  Level FAA TRACON SMA TRACON (SMA)
22:06 42.4550 -84.0389 292° West 159 183 6,100  Level FAA TRACON SMA TRACON (SMA)
22:07 42.4606 -84.0558 294° West 159 183 6,100  Level FAA TRACON SMA TRACON (SMA)
22:07 42.4661 -84.0731 294° West 159 183 6,100  Level FAA TRACON SMA TRACON (SMA)
22:07 42.4733 -84.0939 295° West 160 184 6,100  Level FAA TRACON SMA TRACON (SMA)
22:08 42.4018 -84.1127 297° West  Level Estimated
22:08 42.4769 -84.1114 286° West 157 181 6,100  Level FAA TRACON SMA TRACON (SMA)
22:08 42.4808 -84.1289 287° West 157 181 6,100  Level FAA TRACON SMA TRACON (SMA)
22:08 42.4850 -84.1461 288° West 158 182 6,100  Level FAA TRACON SMA TRACON (SMA)
22:09 42.4922 -84.1672 295° West 158 182 6,100  Level FAA TRACON SMA TRACON (SMA)
22:09 42.4989 -84.1839 298° West 160 184 6,100  Level FAA TRACON SMA TRACON (SMA)
22:09 42.5053 -84.2006 297° West 162 186 6,100  Level FAA TRACON SMA TRACON (SMA)
22:10 42.5117 -84.2219 292° West 159 183 6,100  Level FAA TRACON SMA TRACON (SMA)
22:10 42.5164 -84.2389 291° West 158 182 6,100 -180 Level FAA TRACON SMA TRACON (SMA)
22:10 42.5214 -84.2611 287° West 159 183 6,000 -180 Descending FAA TRACON SMA TRACON (SMA)
22:11 42.5253 -84.2792 286° West 160 184 6,000  Level FAA TRACON SMA TRACON (SMA)
22:11 42.5261 -84.2836 284° West 160 184 6,000  Level FAA TRACON SMA TRACON (SMA)
22:11 42.5261 -84.2836 324° Northwest 160 184 6,000  Level FAA TRACON SMA TRACON (SMA)
22:14 42.5564 -84.3839 292° West  Level FlightAware Approximate
22:16 42.6117 -84.5556 292° West 165 190 6,000  Level Chicago Center
22:17 42.6303 -84.6108 295° West 164 189 6,100  Climbing Chicago Center
22:18 42.6478 -84.6678 293° West 163 188 6,100  Level Chicago Center
22:19 42.6622 -84.7261 289° West 163 188 6,100 -60 Level Chicago Center
22:20 42.6781 -84.7844 290° West 166 191 6,000  Descending Chicago Center
22:21 42.6674 -84.7540 292° West  Level FlightAware Approximate
22:21 42.7092 -84.8342 310° West 173 199 6,100  Level Chicago Center
22:22 42.7375 -84.8869 306° West 173 199 6,100  Level Chicago Center
22:23 42.7672 -84.9383 308° West 173 199 6,100  Level Chicago Center
22:24 42.7939 -84.9914 304° West 172 198 6,100 -300 Level Chicago Center
22:25 42.8267 -85.0586 304° West 176 203 5,600 -540 Descending Chicago Center
22:26 42.8567 -85.1208 303° West 190 219 5,100 -480 Descending Chicago Center
22:27 42.8881 -85.1825 305° West 197 227 4,700 -480 Descending Chicago Center
22:28 42.9025 -85.2472 287° West 182 209 4,200 -720 Descending Chicago Center
22:30 42.8953 -85.3872 266° West 190 219 2,600 -840 Descending Chicago Center
22:31 42.8861 -85.4483 258° West 176 203 1,800 -840 Descending Chicago Center
22:32 42.8806 -85.4953 261° West 146 168 1,000 -840 Descending Chicago Center
22:34 42.8667 -85.5167 270° West  Level FlightAware Approximate